Time,TemperatureF,DewpointF,PressureIn,WindDirection,WindDirectionDegrees,WindSpeedMPH,WindSpeedGustMPH,Humidity,HourlyPrecipIn,Conditions,Clouds,dailyrainin,SoftwareType,DateUTC
2013-02-12 00:00:00,57.1,49.5,29.97,West,270,5.4,7.2,76,0.00,,,0.09,WUHU216HW,2013-02-12 05:00:00,
2013-02-12 00:06:00,56.9,49.3,29.97,West,270,3.6,6.8,76,0.00,,,0.00,WUHU216HW,2013-02-12 05:06:00,
2013-02-12 00:11:00,56.7,49.1,29.97,WSW,248,5.0,5.4,76,0.00,,,0.00,WUHU216HW,2013-02-12 05:11:00,
2013-02-12 00:16:00,56.7,49.1,29.97,SE,135,3.2,5.4,76,0.00,,,0.00,WUHU216HW,2013-02-12 05:16:00,
2013-02-12 00:21:00,56.5,49.0,29.97,SSW,203,1.4,3.2,76,0.00,,,0.00,WUHU216HW,2013-02-12 05:21:00,
2013-02-12 00:26:00,56.5,49.0,29.97,WSW,248,4.4,4.4,76,0.00,,,0.00,WUHU216HW,2013-02-12 05:26:00,
2013-02-12 00:31:00,56.3,48.8,29.97,SW,225,0.8,4.4,76,0.00,,,0.00,WUHU216HW,2013-02-12 05:31:00,
2013-02-12 00:36:00,56.2,48.6,29.97,SSE,158,5.0,5.8,76,0.00,,,0.00,WUHU216HW,2013-02-12 05:36:00,
2013-02-12 00:41:00,56.2,48.6,29.97,West,270,2.2,5.8,76,0.00,,,0.00,WUHU216HW,2013-02-12 05:41:00,
2013-02-12 00:46:00,56.0,48.8,29.97,West,270,2.6,5.0,77,0.00,,,0.00,WUHU216HW,2013-02-12 05:46:00,
2013-02-12 00:51:00,56.0,48.8,29.97,West,270,7.2,7.2,77,0.00,,,0.00,WUHU216HW,2013-02-12 05:51:00,
2013-02-12 00:56:00,56.0,48.8,29.97,WSW,248,3.2,7.2,77,0.00,,,0.00,WUHU216HW,2013-02-12 05:56:00,
2013-02-12 01:01:00,55.8,48.3,29.97,WSW,248,1.4,5.4,76,0.00,,,0.00,WUHU216HW,2013-02-12 06:01:00,
2013-02-12 01:06:00,55.3,47.8,29.98,NNW,338,2.2,6.8,76,0.00,,,0.00,WUHU216HW,2013-02-12 06:06:00,
2013-02-12 01:11:00,55.3,48.2,29.98,WSW,248,3.6,6.8,77,0.00,,,0.00,WUHU216HW,2013-02-12 06:11:00,
2013-02-12 01:16:00,55.4,48.3,29.98,WSW,248,1.8,5.0,77,0.00,,,0.00,WUHU216HW,2013-02-12 06:16:00,
2013-02-12 01:21:00,55.4,48.6,29.98,WSW,248,1.4,9.0,78,0.00,,,0.00,WUHU216HW,2013-02-12 06:21:00,
2013-02-12 01:26:00,55.4,48.3,29.99,West,270,2.2,9.0,77,0.00,,,0.00,WUHU216HW,2013-02-12 06:26:00,
2013-02-12 01:29:00,55.4,48.3,29.99,WSW,248,2.2,2.2,77,0.00,,,0.00,WUHU216HW,2013-02-12 06:29:00,
2013-02-12 01:31:00,55.4,48.3,29.99,WSW,248,2.2,6.2,77,0.00,,,0.00,WUHU216HW,2013-02-12 06:31:00,
2013-02-12 01:36:00,55.4,48.3,29.99,WSW,248,2.2,5.0,77,0.00,,,0.00,WUHU216HW,2013-02-12 06:36:00,
2013-02-12 02:00:00,54.2,46.8,29.99,SW,225,2.6,2.6,76,0.00,,,0.00,WUHU216HW,2013-02-12 07:00:00,
2013-02-12 02:05:00,54.2,47.2,29.99,WSW,248,2.6,4.4,77,0.00,,,0.00,WUHU216HW,2013-02-12 07:05:00,
2013-02-12 02:10:00,54.2,47.2,29.99,WSW,248,3.6,4.4,77,0.00,,,0.00,WUHU216HW,2013-02-12 07:10:00,
2013-02-12 02:15:00,54.2,47.5,29.99,West,270,2.2,4.0,78,0.00,,,0.00,WUHU216HW,2013-02-12 07:15:00,
2013-02-12 02:20:00,54.0,47.0,30.00,WSW,248,5.0,7.2,77,0.00,,,0.00,WUHU216HW,2013-02-12 07:20:00,
2013-02-12 02:25:00,54.0,47.4,30.00,WNW,293,4.4,8.0,78,0.00,,,0.00,WUHU216HW,2013-02-12 07:25:00,
2013-02-12 02:30:00,54.0,47.4,30.00,West,270,2.2,8.0,78,0.00,,,0.00,WUHU216HW,2013-02-12 07:30:00,
2013-02-12 02:35:00,54.0,47.0,29.99,West,270,0.8,2.2,77,0.00,,,0.00,WUHU216HW,2013-02-12 07:35:00,
2013-02-12 02:40:00,53.8,46.8,29.99,West,270,4.4,4.4,77,0.00,,,0.00,WUHU216HW,2013-02-12 07:40:00,
2013-02-12 02:45:00,53.3,45.9,30.00,West,270,0.0,5.0,76,0.00,,,0.00,WUHU216HW,2013-02-12 07:45:00,
2013-02-12 02:50:00,52.9,45.9,30.00,WSW,248,0.8,5.0,77,0.00,,,0.00,WUHU216HW,2013-02-12 07:50:00,
2013-02-12 02:55:00,52.7,45.7,30.00,WSW,248,2.6,3.2,77,0.00,,,0.00,WUHU216HW,2013-02-12 07:55:00,
2013-02-12 03:01:00,52.7,45.7,30.00,WSW,248,2.6,2.6,77,0.00,,,0.00,WUHU216HW,2013-02-12 08:01:00,
2013-02-12 03:06:00,52.9,46.3,30.00,West,270,0.8,2.2,78,0.00,,,0.00,WUHU216HW,2013-02-12 08:06:00,
2013-02-12 03:11:00,52.9,46.3,30.00,SW,225,1.8,2.2,78,0.00,,,0.00,WUHU216HW,2013-02-12 08:11:00,
2013-02-12 03:16:00,52.7,46.1,30.00,WSW,248,1.4,4.0,78,0.00,,,0.00,WUHU216HW,2013-02-12 08:16:00,
2013-02-12 03:21:00,52.6,45.9,30.00,West,270,1.4,4.0,78,0.00,,,0.00,WUHU216HW,2013-02-12 08:21:00,
2013-02-12 03:26:00,52.0,45.4,30.00,WSW,248,0.8,2.2,78,0.00,,,0.00,WUHU216HW,2013-02-12 08:26:00,
2013-02-12 03:31:00,51.8,45.5,30.00,WNW,293,3.2,5.0,79,0.00,,,0.00,WUHU216HW,2013-02-12 08:31:00,
2013-02-12 03:36:00,51.8,45.9,30.00,NW,315,1.4,5.0,80,0.00,,,0.00,WUHU216HW,2013-02-12 08:36:00,
2013-02-12 03:41:00,51.8,45.9,30.00,NW,315,2.6,4.4,80,0.00,,,0.00,WUHU216HW,2013-02-12 08:41:00,
2013-02-12 03:46:00,51.8,45.9,30.00,WNW,293,3.2,4.4,80,0.00,,,0.00,WUHU216HW,2013-02-12 08:46:00,
2013-02-12 03:51:00,51.5,45.5,30.00,WSW,248,2.2,4.0,80,0.00,,,0.00,WUHU216HW,2013-02-12 08:51:00,
2013-02-12 03:56:00,50.9,44.6,30.00,NW,315,4.4,4.4,79,0.00,,,0.00,WUHU216HW,2013-02-12 08:56:00,
2013-02-12 04:01:00,50.8,44.8,30.00,West,270,3.6,4.4,80,0.00,,,0.00,WUHU216HW,2013-02-12 09:01:00,
2013-02-12 04:06:00,50.9,45.6,30.00,NW,315,3.6,7.2,82,0.00,,,0.00,WUHU216HW,2013-02-12 09:06:00,
2013-02-12 04:11:00,50.9,45.6,30.01,WNW,293,3.2,7.2,82,0.00,,,0.00,WUHU216HW,2013-02-12 09:11:00,
2013-02-12 04:16:00,50.9,45.3,30.01,North,0,1.8,5.4,81,0.00,,,0.00,WUHU216HW,2013-02-12 09:16:00,
2013-02-12 04:21:00,50.8,45.1,30.00,West,270,1.4,5.4,81,0.00,,,0.00,WUHU216HW,2013-02-12 09:21:00,
2013-02-12 04:26:00,50.8,45.1,30.00,WNW,293,2.6,3.6,81,0.00,,,0.00,WUHU216HW,2013-02-12 09:26:00,
2013-02-12 04:31:00,50.2,44.3,30.00,West,270,4.0,8.0,80,0.00,,,0.00,WUHU216HW,2013-02-12 09:31:00,
2013-02-12 04:36:00,49.9,43.9,30.00,WNW,293,4.0,8.0,80,0.00,,,0.00,WUHU216HW,2013-02-12 09:36:00,
2013-02-12 04:41:00,50.0,44.7,30.00,WSW,248,3.6,4.0,82,0.00,,,0.00,WUHU216HW,2013-02-12 09:41:00,
2013-02-12 04:46:00,50.2,44.9,30.00,WNW,293,2.2,4.0,82,0.00,,,0.00,WUHU216HW,2013-02-12 09:46:00,
2013-02-12 04:51:00,50.4,44.7,30.00,West,270,5.8,5.8,81,0.00,,,0.00,WUHU216HW,2013-02-12 09:51:00,
2013-02-12 04:56:00,50.2,44.6,30.00,NW,315,3.2,5.8,81,0.00,,,0.00,WUHU216HW,2013-02-12 09:56:00,
2013-02-12 05:00:00,50.0,43.7,30.00,WNW,293,4.0,4.0,79,0.00,,,0.00,WUHU216HW,2013-02-12 10:00:00,
2013-02-12 05:01:00,50.0,43.7,30.00,WNW,293,4.0,5.0,79,0.00,,,0.00,WUHU216HW,2013-02-12 10:01:00,
2013-02-12 05:06:00,50.0,43.7,30.00,WNW,293,4.0,4.0,79,0.00,,,0.00,WUHU216HW,2013-02-12 10:06:00,
2013-02-12 05:31:00,49.9,42.2,30.01,NNW,338,1.8,1.8,75,0.00,,,0.00,WUHU216HW,2013-02-12 10:31:00,
2013-02-12 05:36:00,49.0,41.0,30.01,WNW,293,3.2,5.0,74,0.00,,,0.00,WUHU216HW,2013-02-12 10:36:00,
2013-02-12 05:41:00,48.8,40.8,30.01,WSW,248,6.2,6.2,74,0.00,,,0.00,WUHU216HW,2013-02-12 10:41:00,
2013-02-12 05:45:00,49.1,40.8,30.01,WNW,293,6.8,6.8,73,0.00,,,0.00,WUHU216HW,2013-02-12 10:45:00,
2013-02-12 05:46:00,49.1,40.8,30.01,WNW,293,4.0,7.6,73,0.00,,,0.00,WUHU216HW,2013-02-12 10:46:00,
2013-02-12 05:51:00,49.1,40.8,30.01,WNW,293,6.8,7.6,73,0.00,,,0.00,WUHU216HW,2013-02-12 10:51:00,
2013-02-12 06:01:00,48.6,39.2,30.02,NW,315,5.0,5.0,70,0.00,,,0.00,WUHU216HW,2013-02-12 11:01:00,
2013-02-12 06:06:00,47.9,38.5,30.02,NNW,338,6.8,6.8,70,0.00,,,0.00,WUHU216HW,2013-02-12 11:06:00,
2013-02-12 06:11:00,48.2,38.2,30.03,NNW,338,3.6,6.8,68,0.00,,,0.00,WUHU216HW,2013-02-12 11:11:00,
2013-02-12 06:16:00,48.4,37.5,30.03,WNW,293,3.6,6.2,66,0.00,,,0.00,WUHU216HW,2013-02-12 11:16:00,
2013-02-12 06:21:00,48.4,36.8,30.03,NNW,338,4.0,6.2,64,0.00,,,0.00,WUHU216HW,2013-02-12 11:21:00,
2013-02-12 06:26:00,48.2,36.6,30.02,NW,315,3.2,6.2,64,0.00,,,0.00,WUHU216HW,2013-02-12 11:26:00,
2013-02-12 06:30:00,47.3,36.2,30.02,NW,315,3.6,3.6,65,0.00,,,0.00,WUHU216HW,2013-02-12 11:30:00,
2013-02-12 06:31:00,47.7,36.1,30.02,West,270,3.6,6.2,64,0.00,,,0.00,WUHU216HW,2013-02-12 11:31:00,
2013-02-12 06:36:00,47.3,36.2,30.02,NW,315,3.6,6.2,65,0.00,,,0.00,WUHU216HW,2013-02-12 11:36:00,
2013-02-12 07:01:00,47.2,32.7,30.04,West,270,3.6,3.6,57,0.00,,,0.00,WUHU216HW,2013-02-12 12:01:00,
2013-02-12 07:06:00,46.8,32.3,30.04,NW,315,4.0,4.0,57,0.00,,,0.00,WUHU216HW,2013-02-12 12:06:00,
2013-02-12 07:11:00,45.7,31.8,30.04,NNW,338,3.2,5.0,58,0.00,,,0.00,WUHU216HW,2013-02-12 12:11:00,
2013-02-12 07:16:00,45.9,31.5,30.04,NW,315,2.6,5.8,57,0.00,,,0.00,WUHU216HW,2013-02-12 12:16:00,
2013-02-12 07:21:00,46.3,31.3,30.04,NW,315,3.6,5.8,56,0.00,,,0.00,WUHU216HW,2013-02-12 12:21:00,
2013-02-12 07:26:00,46.4,30.6,30.04,NNW,338,2.2,5.4,54,0.00,,,0.00,WUHU216HW,2013-02-12 12:26:00,
2013-02-12 07:31:00,46.4,29.7,30.05,WNW,293,3.2,9.0,52,0.00,,,0.00,WUHU216HW,2013-02-12 12:31:00,
2013-02-12 07:36:00,46.6,29.9,30.05,NW,315,4.4,10.8,52,0.00,,,0.00,WUHU216HW,2013-02-12 12:36:00,
2013-02-12 07:41:00,46.6,29.4,30.06,NNW,338,4.4,10.8,51,0.00,,,0.00,WUHU216HW,2013-02-12 12:41:00,
2013-02-12 07:46:00,45.4,29.6,30.05,NNW,338,3.6,6.2,54,0.00,,,0.00,WUHU216HW,2013-02-12 12:46:00,
2013-02-12 07:51:00,45.2,27.6,30.05,NW,315,5.0,5.8,50,0.00,,,0.00,WUHU216HW,2013-02-12 12:51:00,
2013-02-12 07:56:00,45.7,28.6,30.05,North,0,2.6,5.0,51,0.00,,,0.00,WUHU216HW,2013-02-12 12:56:00,
2013-02-12 08:01:00,45.7,28.2,30.06,NNW,338,4.4,5.0,50,0.00,,,0.00,WUHU216HW,2013-02-12 13:01:00,
2013-02-12 08:06:00,45.5,27.5,30.06,NW,315,3.6,8.0,49,0.00,,,0.00,WUHU216HW,2013-02-12 13:06:00,
2013-02-12 08:11:00,44.5,27.9,30.06,North,0,2.2,8.0,52,0.00,,,0.00,WUHU216HW,2013-02-12 13:11:00,
2013-02-12 08:16:00,44.5,27.5,30.06,NNW,338,5.0,5.8,51,0.00,,,0.00,WUHU216HW,2013-02-12 13:16:00,
2013-02-12 08:21:00,45.0,27.6,30.07,WNW,293,3.6,5.8,50,0.00,,,0.00,WUHU216HW,2013-02-12 13:21:00,
2013-02-12 08:27:00,45.4,27.3,30.07,NNW,338,3.6,4.0,49,0.00,,,0.00,WUHU216HW,2013-02-12 13:27:00,
2013-02-12 08:32:00,45.5,28.4,30.07,NNW,338,2.2,8.0,51,0.00,,,0.00,WUHU216HW,2013-02-12 13:32:00,
2013-02-12 08:37:00,45.2,27.6,30.07,North,0,3.6,9.0,50,0.00,,,0.00,WUHU216HW,2013-02-12 13:37:00,
2013-02-12 08:42:00,45.7,27.6,30.07,NNW,338,1.8,9.0,49,0.00,,,0.00,WUHU216HW,2013-02-12 13:42:00,
2013-02-12 08:47:00,46.4,27.2,30.06,North,0,5.8,5.8,47,0.00,,,0.00,WUHU216HW,2013-02-12 13:47:00,
2013-02-12 08:52:00,47.2,27.8,30.06,NNW,338,3.2,6.8,47,0.00,,,0.00,WUHU216HW,2013-02-12 13:52:00,
2013-02-12 08:57:00,47.2,29.4,30.07,NW,315,4.0,6.8,50,0.00,,,0.00,WUHU216HW,2013-02-12 13:57:00,
2013-02-12 09:02:00,47.7,28.9,30.07,WNW,293,3.2,8.0,48,0.00,,,0.00,WUHU216HW,2013-02-12 14:02:00,
2013-02-12 09:07:00,48.4,26.8,30.08,West,270,6.8,8.0,43,0.00,,,0.00,WUHU216HW,2013-02-12 14:07:00,
2013-02-12 09:12:00,49.0,27.3,30.08,NNW,338,3.6,8.6,43,0.00,,,0.00,WUHU216HW,2013-02-12 14:12:00,
2013-02-12 09:17:00,49.3,26.0,30.09,North,0,5.0,8.6,40,0.00,,,0.00,WUHU216HW,2013-02-12 14:17:00,
2013-02-12 09:22:00,49.0,26.7,30.10,NNW,338,6.2,8.0,42,0.00,,,0.00,WUHU216HW,2013-02-12 14:22:00,
2013-02-12 09:27:00,49.5,26.2,30.09,NW,315,6.8,10.2,40,0.00,,,0.00,WUHU216HW,2013-02-12 14:27:00,
2013-02-12 09:32:00,49.9,26.5,30.09,North,0,5.4,10.2,40,0.00,,,0.00,WUHU216HW,2013-02-12 14:32:00,
2013-02-12 09:37:00,50.0,25.9,30.10,NNW,338,12.6,12.6,39,0.00,,,0.00,WUHU216HW,2013-02-12 14:37:00,
2013-02-12 09:42:00,50.0,25.3,30.10,North,0,5.4,13.0,38,0.00,,,0.00,WUHU216HW,2013-02-12 14:42:00,
2013-02-12 09:47:00,49.3,25.3,30.10,WNW,293,5.4,13.0,39,0.00,,,0.00,WUHU216HW,2013-02-12 14:47:00,
2013-02-12 09:52:00,49.5,24.9,30.11,WNW,293,3.2,9.4,38,0.00,,,0.00,WUHU216HW,2013-02-12 14:52:00,
2013-02-12 09:57:00,50.0,25.9,30.10,North,0,4.0,9.4,39,0.00,,,0.00,WUHU216HW,2013-02-12 14:57:00,
2013-02-12 10:02:00,50.6,27.1,30.10,WNW,293,9.0,9.0,40,0.00,,,0.00,WUHU216HW,2013-02-12 15:02:00,
2013-02-12 10:07:00,51.1,26.3,30.10,North,0,3.2,9.0,38,0.00,,,0.00,WUHU216HW,2013-02-12 15:07:00,
2013-02-12 10:12:00,51.1,26.3,30.10,North,0,2.6,9.4,38,0.00,,,0.00,WUHU216HW,2013-02-12 15:12:00,
2013-02-12 10:17:00,51.3,27.1,30.10,WSW,248,6.8,11.2,39,0.00,,,0.00,WUHU216HW,2013-02-12 15:17:00,
2013-02-12 10:22:00,52.0,26.4,30.10,WNW,293,6.8,13.8,37,0.00,,,0.00,WUHU216HW,2013-02-12 15:22:00,
2013-02-12 10:27:00,52.9,26.5,30.10,North,0,7.6,13.8,36,0.00,,,0.00,WUHU216HW,2013-02-12 15:27:00,
2013-02-12 10:32:00,53.3,28.9,30.11,NW,315,9.0,10.8,39,0.00,,,0.00,WUHU216HW,2013-02-12 15:32:00,
2013-02-12 10:37:00,53.3,27.6,30.10,WSW,248,2.6,10.8,37,0.00,,,0.00,WUHU216HW,2013-02-12 15:37:00,
2013-02-12 10:43:00,53.1,26.0,30.11,WSW,248,2.2,12.0,35,0.00,,,0.00,WUHU216HW,2013-02-12 15:43:00,
2013-02-12 10:48:00,53.1,26.6,30.11,WSW,248,15.2,15.2,36,0.00,,,0.00,WUHU216HW,2013-02-12 15:48:00,
2013-02-12 10:53:00,52.6,28.3,30.11,WSW,248,6.8,15.2,39,0.00,,,0.00,WUHU216HW,2013-02-12 15:53:00,
2013-02-12 10:58:00,53.5,26.3,30.11,NW,315,9.4,9.4,35,0.00,,,0.00,WUHU216HW,2013-02-12 15:58:00,
2013-02-12 11:03:00,54.4,27.7,30.10,WNW,293,5.0,11.2,36,0.00,,,0.00,WUHU216HW,2013-02-12 16:03:00,
2013-02-12 11:08:00,54.4,25.0,30.10,SW,225,11.6,11.6,32,0.00,,,0.00,WUHU216HW,2013-02-12 16:08:00,
2013-02-12 11:13:00,54.4,25.7,30.10,WNW,293,4.0,11.6,33,0.00,,,0.00,WUHU216HW,2013-02-12 16:13:00,
2013-02-12 11:18:00,54.5,25.8,30.10,WSW,248,9.4,9.8,33,0.00,,,0.00,WUHU216HW,2013-02-12 16:18:00,
2013-02-12 11:23:00,54.0,26.1,30.09,North,0,4.0,9.8,34,0.00,,,0.00,WUHU216HW,2013-02-12 16:23:00,
2013-02-12 11:28:00,54.7,26.6,30.10,West,270,1.4,7.6,34,0.00,,,0.00,WUHU216HW,2013-02-12 16:28:00,
2013-02-12 11:33:00,55.4,26.6,30.09,West,270,7.6,12.6,33,0.00,,,0.00,WUHU216HW,2013-02-12 16:33:00,
2013-02-12 11:38:00,56.0,26.4,30.09,WNW,293,8.0,12.6,32,0.00,,,0.00,WUHU216HW,2013-02-12 16:38:00,
2013-02-12 11:43:00,56.5,27.5,30.09,WSW,248,9.4,9.4,33,0.00,,,0.00,WUHU216HW,2013-02-12 16:43:00,
2013-02-12 11:48:00,56.9,26.5,30.08,West,270,6.8,9.4,31,0.00,,,0.00,WUHU216HW,2013-02-12 16:48:00,
2013-02-12 11:53:00,57.2,26.1,30.08,NW,315,6.8,9.0,30,0.00,,,0.00,WUHU216HW,2013-02-12 16:53:00,
2013-02-12 11:58:00,57.4,26.3,30.07,WNW,293,3.6,9.0,30,0.00,,,0.00,WUHU216HW,2013-02-12 16:58:00,
2013-02-12 12:03:00,57.6,26.5,30.07,NW,315,2.6,9.0,30,0.00,,,0.00,WUHU216HW,2013-02-12 17:03:00,
2013-02-12 12:09:00,57.2,26.8,30.07,NNW,338,5.0,6.8,31,0.00,,,0.00,WUHU216HW,2013-02-12 17:09:00,
2013-02-12 12:14:00,57.6,26.5,30.07,West,270,3.6,8.0,30,0.00,,,0.00,WUHU216HW,2013-02-12 17:14:00,
2013-02-12 12:19:00,58.1,26.9,30.06,NNW,338,5.0,8.0,30,0.00,,,0.00,WUHU216HW,2013-02-12 17:19:00,
2013-02-12 12:24:00,58.3,26.1,30.05,NW,315,6.8,7.6,29,0.00,,,0.00,WUHU216HW,2013-02-12 17:24:00,
2013-02-12 12:29:00,58.7,28.1,30.04,North,0,2.6,6.8,31,0.00,,,0.00,WUHU216HW,2013-02-12 17:29:00,
2013-02-12 12:34:00,59.4,28.0,30.04,NNE,23,2.2,6.8,30,0.00,,,0.00,WUHU216HW,2013-02-12 17:34:00,
2013-02-12 12:39:00,59.9,29.2,30.04,SW,225,3.6,7.2,31,0.00,,,0.00,WUHU216HW,2013-02-12 17:39:00,
2013-02-12 12:44:00,60.1,27.6,30.04,West,270,6.8,7.2,29,0.00,,,0.00,WUHU216HW,2013-02-12 17:44:00,
2013-02-12 12:49:00,60.1,27.6,30.04,WSW,248,3.6,6.8,29,0.00,,,0.00,WUHU216HW,2013-02-12 17:49:00,
2013-02-12 12:54:00,60.5,26.0,30.04,NW,315,2.2,6.2,27,0.00,,,0.00,WUHU216HW,2013-02-12 17:54:00,
2013-02-12 12:59:00,60.7,27.1,30.04,West,270,5.8,6.2,28,0.00,,,0.00,WUHU216HW,2013-02-12 17:59:00,
2013-02-12 13:04:00,60.8,28.2,30.05,ENE,68,0.8,5.8,29,0.00,,,0.00,WUHU216HW,2013-02-12 18:04:00,
2013-02-12 13:09:00,60.7,26.2,30.04,West,270,3.6,6.2,27,0.00,,,0.00,WUHU216HW,2013-02-12 18:09:00,
2013-02-12 13:14:00,60.7,25.2,30.03,West,270,6.8,8.6,26,0.00,,,0.00,WUHU216HW,2013-02-12 18:14:00,
2013-02-12 13:19:00,60.5,25.0,30.03,WNW,293,6.2,9.0,26,0.00,,,0.00,WUHU216HW,2013-02-12 18:19:00,
2013-02-12 13:24:00,59.9,23.7,30.03,West,270,5.0,9.0,25,0.00,,,0.00,WUHU216HW,2013-02-12 18:24:00,
2013-02-12 13:29:00,59.8,26.4,30.02,NW,315,3.2,8.6,28,0.00,,,0.00,WUHU216HW,2013-02-12 18:29:00,
2013-02-12 13:34:00,60.7,24.2,30.03,NW,315,4.0,6.8,25,0.00,,,0.00,WUHU216HW,2013-02-12 18:34:00,
2013-02-12 13:39:00,60.5,24.1,30.02,West,270,2.6,8.0,25,0.00,,,0.00,WUHU216HW,2013-02-12 18:39:00,
2013-02-12 13:44:00,60.8,23.4,30.01,NNW,338,6.8,8.0,24,0.00,,,0.00,WUHU216HW,2013-02-12 18:44:00,
2013-02-12 13:49:00,60.5,24.1,30.01,North,0,3.6,6.8,25,0.00,,,0.00,WUHU216HW,2013-02-12 18:49:00,
2013-02-12 13:54:00,61.0,26.5,30.01,WNW,293,5.8,7.2,27,0.00,,,0.00,WUHU216HW,2013-02-12 18:54:00,
2013-02-12 14:00:00,61.2,26.7,30.00,North,0,6.8,7.2,27,0.00,,,0.00,WUHU216HW,2013-02-12 19:00:00,
2013-02-12 14:05:00,61.4,25.8,30.00,WNW,293,3.6,6.8,26,0.00,,,0.00,WUHU216HW,2013-02-12 19:05:00,
2013-02-12 14:10:00,61.6,26.9,30.00,West,270,6.2,6.2,27,0.00,,,0.00,WUHU216HW,2013-02-12 19:10:00,
2013-02-12 14:15:00,61.9,27.3,30.00,WSW,248,1.4,6.8,27,0.00,,,0.00,WUHU216HW,2013-02-12 19:15:00,
2013-02-12 14:20:00,61.7,27.1,30.00,NNW,338,5.4,6.8,27,0.00,,,0.00,WUHU216HW,2013-02-12 19:20:00,
2013-02-12 14:25:00,60.5,26.0,30.00,WNW,293,6.2,7.2,27,0.00,,,0.00,WUHU216HW,2013-02-12 19:25:00,
2013-02-12 14:30:00,60.5,26.0,30.00,WSW,248,4.4,7.2,27,0.00,,,0.00,WUHU216HW,2013-02-12 19:30:00,
2013-02-12 14:35:00,60.8,26.3,30.01,WNW,293,5.0,5.0,27,0.00,,,0.00,WUHU216HW,2013-02-12 19:35:00,
2013-02-12 14:40:00,60.5,26.0,30.01,WSW,248,4.0,7.6,27,0.00,,,0.00,WUHU216HW,2013-02-12 19:40:00,
2013-02-12 14:45:00,60.5,26.0,30.00,WSW,248,3.6,7.6,27,0.00,,,0.00,WUHU216HW,2013-02-12 19:45:00,
2013-02-12 14:50:00,60.5,24.1,30.01,NW,315,3.2,8.6,25,0.00,,,0.00,WUHU216HW,2013-02-12 19:50:00,
2013-02-12 14:55:00,60.5,24.1,30.00,WSW,248,2.6,8.6,25,0.00,,,0.00,WUHU216HW,2013-02-12 19:55:00,
2013-02-12 15:00:00,60.7,26.2,30.01,North,0,2.2,6.2,27,0.00,,,0.00,WUHU216HW,2013-02-12 20:00:00,
2013-02-12 15:05:00,59.9,25.6,30.00,SW,225,5.0,5.8,27,0.00,,,0.00,WUHU216HW,2013-02-12 20:05:00,
2013-02-12 15:10:00,59.0,25.7,30.01,WSW,248,4.0,6.8,28,0.00,,,0.00,WUHU216HW,2013-02-12 20:10:00,
2013-02-12 15:15:00,59.4,26.1,30.01,WNW,293,3.6,7.2,28,0.00,,,0.00,WUHU216HW,2013-02-12 20:15:00,
2013-02-12 15:20:00,59.8,27.4,30.01,NNW,338,3.2,7.2,29,0.00,,,0.00,WUHU216HW,2013-02-12 20:20:00,
2013-02-12 15:25:00,59.9,26.6,30.01,NW,315,3.2,5.0,28,0.00,,,0.00,WUHU216HW,2013-02-12 20:25:00,
2013-02-12 15:30:00,59.8,26.4,30.01,WSW,248,3.6,6.2,28,0.00,,,0.00,WUHU216HW,2013-02-12 20:30:00,
2013-02-12 15:35:00,59.4,26.1,30.01,NW,315,3.6,6.2,28,0.00,,,0.00,WUHU216HW,2013-02-12 20:35:00,
2013-02-12 15:40:00,59.2,25.9,30.00,West,270,3.6,6.2,28,0.00,,,0.00,WUHU216HW,2013-02-12 20:40:00,
2013-02-12 15:45:00,58.3,26.1,30.00,West,270,4.4,4.4,29,0.00,,,0.00,WUHU216HW,2013-02-12 20:45:00,
2013-02-12 15:50:00,58.7,27.4,30.00,West,270,1.4,5.8,30,0.00,,,0.00,WUHU216HW,2013-02-12 20:50:00,
2013-02-12 15:55:00,58.9,27.5,30.00,West,270,2.6,5.8,30,0.00,,,0.00,WUHU216HW,2013-02-12 20:55:00,
2013-02-12 16:00:00,59.2,27.9,29.99,West,270,4.4,5.4,30,0.00,,,0.00,WUHU216HW,2013-02-12 21:00:00,
2013-02-12 16:05:00,59.2,27.9,29.99,West,270,1.4,5.4,30,0.00,,,0.00,WUHU216HW,2013-02-12 21:05:00,
2013-02-12 16:10:00,58.5,26.3,30.00,WNW,293,2.6,4.4,29,0.00,,,0.00,WUHU216HW,2013-02-12 21:10:00,
2013-02-12 16:16:00,57.2,26.1,30.00,WNW,293,2.6,5.4,30,0.00,,,0.00,WUHU216HW,2013-02-12 21:16:00,
2013-02-12 16:21:00,57.4,26.3,30.00,WNW,293,3.6,5.4,30,0.00,,,0.00,WUHU216HW,2013-02-12 21:21:00,
2013-02-12 16:26:00,57.6,26.5,30.00,WNW,293,1.8,4.4,30,0.00,,,0.00,WUHU216HW,2013-02-12 21:26:00,
2013-02-12 16:31:00,57.8,27.3,29.99,WNW,293,1.4,4.4,31,0.00,,,0.00,WUHU216HW,2013-02-12 21:31:00,
2013-02-12 16:36:00,57.8,27.3,30.00,NW,315,2.2,2.2,31,0.00,,,0.00,WUHU216HW,2013-02-12 21:36:00,
2013-02-12 16:41:00,57.6,27.8,30.00,NNW,338,0.8,2.2,32,0.00,,,0.00,WUHU216HW,2013-02-12 21:41:00,
2013-02-12 16:46:00,56.5,28.3,30.00,NNW,338,0.8,2.2,34,0.00,,,0.00,WUHU216HW,2013-02-12 21:46:00,
2013-02-12 16:51:00,56.2,27.9,30.00,NNW,338,1.8,2.2,34,0.00,,,0.00,WUHU216HW,2013-02-12 21:51:00,
2013-02-12 16:56:00,56.3,28.1,30.01,NNW,338,1.8,2.6,34,0.00,,,0.00,WUHU216HW,2013-02-12 21:56:00,
2013-02-12 17:01:00,56.2,29.3,30.01,NW,315,0.8,2.6,36,0.00,,,0.00,WUHU216HW,2013-02-12 22:01:00,
2013-02-12 17:06:00,56.2,29.3,30.01,NW,315,2.6,2.6,36,0.00,,,0.00,WUHU216HW,2013-02-12 22:06:00,
2013-02-12 17:11:00,55.6,29.5,30.01,NNW,338,2.6,2.6,37,0.00,,,0.00,WUHU216HW,2013-02-12 22:11:00,
2013-02-12 17:16:00,54.9,28.9,30.01,NW,315,0.8,2.6,37,0.00,,,0.00,WUHU216HW,2013-02-12 22:16:00,
2013-02-12 17:21:00,55.1,28.4,30.01,NW,315,2.2,2.6,36,0.00,,,0.00,WUHU216HW,2013-02-12 22:21:00,
2013-02-12 17:26:00,55.3,28.5,30.00,NNW,338,0.0,2.6,36,0.00,,,0.00,WUHU216HW,2013-02-12 22:26:00,
2013-02-12 17:31:00,55.3,28.5,30.00,NNW,338,0.0,1.4,36,0.00,,,0.00,WUHU216HW,2013-02-12 22:31:00,
2013-02-12 17:36:00,55.1,28.4,30.00,NNW,338,0.0,0.0,36,0.00,,,0.00,WUHU216HW,2013-02-12 22:36:00,
2013-02-12 17:41:00,54.7,28.8,30.00,NNW,338,0.0,0.4,37,0.00,,,0.00,WUHU216HW,2013-02-12 22:41:00,
2013-02-12 17:46:00,54.2,28.3,30.00,NNW,338,0.0,0.4,37,0.00,,,0.00,WUHU216HW,2013-02-12 22:46:00,
2013-02-12 17:52:00,54.2,28.3,29.99,NNW,338,0.0,0.0,37,0.00,,,0.00,WUHU216HW,2013-02-12 22:52:00,
2013-02-12 17:57:00,54.2,29.0,29.99,ESE,113,0.8,2.2,38,0.00,,,0.00,WUHU216HW,2013-02-12 22:57:00,
2013-02-12 18:02:00,54.2,29.0,29.99,ESE,113,0.0,2.2,38,0.00,,,0.00,WUHU216HW,2013-02-12 23:02:00,
2013-02-12 18:07:00,53.6,28.5,29.99,SSE,158,1.4,2.2,38,0.00,,,0.00,WUHU216HW,2013-02-12 23:07:00,
2013-02-12 18:12:00,53.3,28.2,30.00,SSW,203,0.0,2.2,38,0.00,,,0.00,WUHU216HW,2013-02-12 23:12:00,
2013-02-12 18:17:00,53.1,28.7,30.00,SSW,203,0.0,0.8,39,0.00,,,0.00,WUHU216HW,2013-02-12 23:17:00,
2013-02-12 18:22:00,53.1,28.7,29.99,SSE,158,0.0,0.0,39,0.00,,,0.00,WUHU216HW,2013-02-12 23:22:00,
2013-02-12 18:27:00,53.3,28.9,30.00,SSE,158,0.0,0.0,39,0.00,,,0.00,WUHU216HW,2013-02-12 23:27:00,
2013-02-12 18:32:00,53.1,28.7,29.99,SSE,158,1.4,1.4,39,0.00,,,0.00,WUHU216HW,2013-02-12 23:32:00,
2013-02-12 18:37:00,53.1,28.7,29.99,SE,135,0.8,1.8,39,0.00,,,0.00,WUHU216HW,2013-02-12 23:37:00,
2013-02-12 18:42:00,53.1,28.7,29.99,SE,135,0.0,1.8,39,0.00,,,0.00,WUHU216HW,2013-02-12 23:42:00,
2013-02-12 18:47:00,53.1,29.4,30.00,SSW,203,0.0,0.0,40,0.00,,,0.00,WUHU216HW,2013-02-12 23:47:00,
2013-02-12 18:52:00,52.9,29.3,30.00,SSW,203,0.0,0.0,40,0.00,,,0.00,WUHU216HW,2013-02-12 23:52:00,
2013-02-12 18:57:00,52.9,29.3,30.00,SSW,203,0.0,2.2,40,0.00,,,0.00,WUHU216HW,2013-02-12 23:57:00,
2013-02-12 19:02:00,52.7,29.6,30.00,SSE,158,0.0,2.2,41,0.00,,,0.00,WUHU216HW,2013-02-13 00:02:00,
2013-02-12 19:07:00,52.4,30.4,29.99,WSW,248,0.0,0.8,43,0.00,,,0.00,WUHU216HW,2013-02-13 00:07:00,
2013-02-12 19:12:00,52.2,30.2,29.99,SE,135,2.2,2.2,43,0.00,,,0.00,WUHU216HW,2013-02-13 00:12:00,
2013-02-12 19:17:00,52.0,30.1,29.99,SE,135,0.0,2.2,43,0.00,,,0.00,WUHU216HW,2013-02-13 00:17:00,
2013-02-12 19:22:00,51.8,29.3,29.99,SE,135,0.0,0.8,42,0.00,,,0.00,WUHU216HW,2013-02-13 00:22:00,
2013-02-12 19:27:00,51.7,29.3,29.98,SE,135,0.0,0.0,42,0.00,,,0.00,WUHU216HW,2013-02-13 00:27:00,
2013-02-12 19:32:00,51.5,30.7,29.99,SE,135,0.0,0.0,45,0.00,,,0.00,WUHU216HW,2013-02-13 00:32:00,
2013-02-12 19:38:00,50.9,30.2,29.99,SE,135,0.0,0.0,45,0.00,,,0.00,WUHU216HW,2013-02-13 00:38:00,
2013-02-12 19:43:00,50.8,30.1,29.98,SE,135,0.0,0.0,45,0.00,,,0.00,WUHU216HW,2013-02-13 00:43:00,
2013-02-12 19:48:00,50.8,29.5,29.96,SE,135,0.0,0.8,44,0.00,,,0.00,WUHU216HW,2013-02-13 00:48:00,
2013-02-12 19:53:00,50.8,29.5,29.95,SE,135,0.0,0.8,44,0.00,,,0.00,WUHU216HW,2013-02-13 00:53:00,
2013-02-12 19:58:00,50.8,30.1,29.94,ENE,68,1.4,1.8,45,0.00,,,0.00,WUHU216HW,2013-02-13 00:58:00,
2013-02-12 20:03:00,50.8,30.1,29.92,East,90,1.4,1.8,45,0.00,,,0.00,WUHU216HW,2013-02-13 01:03:00,
2013-02-12 20:08:00,50.8,30.1,29.92,East,90,0.8,1.4,45,0.00,,,0.00,WUHU216HW,2013-02-13 01:08:00,
2013-02-12 20:34:00,50.2,31.2,29.96,SSW,203,1.8,1.8,48,0.00,,,0.00,WUHU216HW,2013-02-13 01:34:00,
2013-02-12 20:39:00,50.2,31.2,29.97,SW,225,0.0,1.8,48,0.00,,,0.00,WUHU216HW,2013-02-13 01:39:00,
2013-02-12 20:44:00,50.2,31.2,29.98,SW,225,0.0,1.4,48,0.00,,,0.00,WUHU216HW,2013-02-13 01:44:00,
2013-02-12 20:49:00,50.0,32.2,29.99,SW,225,0.0,0.0,50,0.00,,,0.00,WUHU216HW,2013-02-13 01:49:00,
2013-02-12 20:54:00,49.7,33.2,29.99,SW,225,0.0,0.0,53,0.00,,,0.00,WUHU216HW,2013-02-13 01:54:00,
2013-02-12 20:59:00,49.1,32.7,29.99,SW,225,0.4,0.8,53,0.00,,,0.00,WUHU216HW,2013-02-13 01:59:00,
2013-02-12 21:04:00,49.1,32.7,30.00,SW,225,0.0,0.8,53,0.00,,,0.00,WUHU216HW,2013-02-13 02:04:00,
2013-02-12 21:09:00,49.0,32.9,30.00,West,270,0.0,1.4,54,0.00,,,0.00,WUHU216HW,2013-02-13 02:09:00,
2013-02-12 21:14:00,49.0,32.0,29.99,WNW,293,0.0,1.4,52,0.00,,,0.00,WUHU216HW,2013-02-13 02:14:00,
2013-02-12 21:19:00,48.4,31.1,29.99,WNW,293,0.0,0.0,51,0.00,,,0.00,WUHU216HW,2013-02-13 02:19:00,
2013-02-12 21:24:00,48.1,30.7,29.99,WNW,293,0.0,0.0,51,0.00,,,0.00,WUHU216HW,2013-02-13 02:24:00,
2013-02-12 21:28:00,48.2,30.9,29.99,WNW,293,0.0,0.0,51,0.00,,,0.00,WUHU216HW,2013-02-13 02:28:00,
2013-02-12 21:29:00,48.2,30.9,29.99,WNW,293,0.0,0.0,51,0.00,,,0.00,WUHU216HW,2013-02-13 02:29:00,
2013-02-12 21:34:00,48.2,30.9,29.99,WNW,293,0.0,0.0,51,0.00,,,0.00,WUHU216HW,2013-02-13 02:34:00,
2013-02-12 21:59:00,48.6,32.1,30.01,NW,315,3.2,3.2,53,0.00,,,0.00,WUHU216HW,2013-02-13 02:59:00,
2013-02-12 22:04:00,48.6,32.1,30.01,NW,315,0.8,3.2,53,0.00,,,0.00,WUHU216HW,2013-02-13 03:04:00,
2013-02-12 22:09:00,48.4,32.1,30.00,NNW,338,0.8,3.2,53,0.00,,,0.00,WUHU216HW,2013-02-13 03:09:00,
2013-02-12 22:14:00,47.7,31.8,30.00,NW,315,0.8,1.8,54,0.00,,,0.00,WUHU216HW,2013-02-13 03:14:00,
2013-02-12 22:19:00,47.5,31.6,30.00,NW,315,0.0,1.4,54,0.00,,,0.00,WUHU216HW,2013-02-13 03:19:00,
2013-02-12 22:24:00,47.7,31.8,30.00,North,0,0.4,1.4,54,0.00,,,0.00,WUHU216HW,2013-02-13 03:24:00,
2013-02-12 22:29:00,47.9,32.0,30.01,WSW,248,1.4,1.4,54,0.00,,,0.00,WUHU216HW,2013-02-13 03:29:00,
2013-02-12 22:34:00,48.1,32.6,30.00,NE,45,2.6,2.6,55,0.00,,,0.00,WUHU216HW,2013-02-13 03:34:00,
2013-02-12 22:39:00,48.1,32.1,29.99,NNE,23,0.0,3.6,54,0.00,,,0.00,WUHU216HW,2013-02-13 03:39:00,
2013-02-12 22:44:00,48.2,32.3,29.98,NNW,338,1.4,3.6,54,0.00,,,0.00,WUHU216HW,2013-02-13 03:44:00,
2013-02-12 22:50:00,47.9,32.4,29.97,NW,315,0.0,1.8,55,0.00,,,0.00,WUHU216HW,2013-02-13 03:50:00,
2013-02-12 22:55:00,47.7,32.2,29.99,NW,315,1.8,1.8,55,0.00,,,0.00,WUHU216HW,2013-02-13 03:55:00,
2013-02-12 23:00:00,47.5,32.6,29.99,SW,225,1.4,1.8,56,0.00,,,0.00,WUHU216HW,2013-02-13 04:00:00,
2013-02-12 23:05:00,47.7,32.7,29.98,West,270,0.0,1.8,56,0.00,,,0.00,WUHU216HW,2013-02-13 04:05:00,
2013-02-12 23:10:00,47.9,32.4,29.98,West,270,0.0,1.8,55,0.00,,,0.00,WUHU216HW,2013-02-13 04:10:00,
2013-02-12 23:15:00,47.9,32.4,29.97,West,270,0.0,0.4,55,0.00,,,0.00,WUHU216HW,2013-02-13 04:15:00,
2013-02-12 23:20:00,48.2,33.7,29.97,WSW,248,0.8,0.8,57,0.00,,,0.00,WUHU216HW,2013-02-13 04:20:00,
2013-02-12 23:25:00,47.3,34.6,29.97,WSW,248,0.0,0.8,61,0.00,,,0.00,WUHU216HW,2013-02-13 04:25:00,
2013-02-12 23:30:00,47.0,32.5,29.96,WSW,248,0.0,0.8,57,0.00,,,0.00,WUHU216HW,2013-02-13 04:30:00,
2013-02-12 23:35:00,47.2,33.1,29.96,SE,135,1.4,2.6,58,0.00,,,0.00,WUHU216HW,2013-02-13 04:35:00,
2013-02-12 23:40:00,47.3,33.3,29.97,SSE,158,0.4,4.0,58,0.00,,,0.00,WUHU216HW,2013-02-13 04:40:00,
2013-02-12 23:45:00,47.5,34.4,29.96,West,270,0.8,4.0,60,0.00,,,0.00,WUHU216HW,2013-02-13 04:45:00,
2013-02-12 23:50:00,47.5,34.7,29.97,SSE,158,2.2,2.2,61,0.00,,,0.00,WUHU216HW,2013-02-13 04:50:00,
2013-02-12 23:55:00,47.0,32.5,29.97,SSE,158,5.0,5.0,57,0.00,,,0.00,WUHU216HW,2013-02-13 04:55:00,